Terminal Aerodrome Forecast
Issued by NWS Milwaukee/Sullivan, WI

Home | Current Version | Previous Version | Text Only | Print | Product List | Glossary On
Versions: 1 2 3 4 5 6 7 8 9 10 11 12 13 14 15 16 17 18 19 20 21 22 23 24 25
000
FTUS43 KMKX 272320
TAFMSN
TAF
KMSN 272320Z 2800/2824 36004KT P6SM OVC013
     FM280300 04004KT P6SM OVC008
     FM281200 03006KT 6SM BR BKN012
     FM281600 04008KT P6SM BKN020
     FM281800 05007KT P6SM SCT035
     FM282300 05007KT P6SM FEW140=

USA.gov is the U.S. government's official web portal to all federal, state and local government web resources and services.